This is the latest recevied weather packets stored in our database for station/object G7GFU-13. If no packets are shown the sender has not sent any weather packets the latest 10 day(s).
| Time | Temp. | Humidity | Pressure | Rain* | Wind** | Luminosity | Snow |
|---|---|---|---|---|---|---|---|
| 1777024803 | 15.56° C | 51% | 1027.3 hPa | 0 mm | - | - | - |
| 1777022283 | 13.33° C | 54% | 1027.6 hPa | 0 mm | - | - | - |
| 1777021743 | 12.22° C | 56% | 1027.6 hPa | 0 mm | - | - | - |
| 1777020843 | 11.67° C | 58% | 1027.6 hPa | 0 mm | - | - | - |
| 1777013643 | 7.22° C | 79% | 1027.5 hPa | 0 mm | - | - | - |
| 1777011618 | 6.67° C | 83% | 1027.6 hPa | 0 mm | - | - | - |
| 1777010943 | 4.44° C | 87% | 1027.6 hPa | 0 mm | - | - | - |
| 1777009097 | 3.89° C | 87% | 1027.6 hPa | 0 mm | - | - | - |
| 1777008018 | 3.89° C | 86% | 1027.6 hPa | 0 mm | - | - | - |
| 1777003203 | 4.44° C | 85% | 1028 hPa | 0 mm | - | - | - |
| 1777002843 | 4.44° C | 85% | 1027.9 hPa | 0 mm | - | - | - |
| 1777001898 | 5° C | 84% | 1027.9 hPa | 0 mm | - | - | - |
| 1777001223 | 5° C | 83% | 1028 hPa | 0 mm | - | - | - |
| 1777000143 | 5.56° C | 83% | 1028.1 hPa | 0 mm | - | - | - |
| 1776997217 | 5.56° C | 82% | 1028.4 hPa | 0 mm | - | - | - |
| 1776994563 | 6.11° C | 81% | 1028.6 hPa | 0 mm | - | - | - |
| 1776992043 | 6.67° C | 79% | 1028.7 hPa | 0 mm | - | - | - |
| 1776991503 | 6.67° C | 78% | 1028.7 hPa | 0 mm | - | - | - |
| 1776987903 | 7.78° C | 77% | 1028.8 hPa | 0 mm | - | - | - |
| 1776987363 | 7.78° C | 77% | 1028.7 hPa | 0 mm | - | - | - |
| 1776985338 | 8.33° C | 73% | 1028.9 hPa | 0 mm | - | - | - |
| 1776975618 | 12.78° C | 55% | 1028.7 hPa | 0 mm | - | - | - |
| 1776972423 | 14.44° C | 53% | 1028.4 hPa | 0 mm | - | - | - |
| 1776971343 | 14.44° C | 52% | 1028.3 hPa | 0 mm | - | - | - |
| 1776969903 | 15.56° C | 50% | 1028.3 hPa | 0 mm | - | - | - |
* Rain latest hour (hover to see other rain measurements)
** Current wind speed in m/s (hover to see current wind gust speed)